Carbonear, Canada
Current Conditions -  °F | °C
As of 12:24 PM on Saturday 25 Oct 2014 (Local Time) from CYYT Reporting Station
Rain Showers Rain Showers  
Wind Chill:   Ceiling: 100
Heat Index:   Visibility: 0.25mi
Dew Point:   Wind: 13mph
Humidity: 100%   Direction: 30°NNE
Pressure: 29.4"   Gusts: 18mph
Location:  47.73°N, 53.25°W
Report Text: CYYT 251424Z 03011G16KT 1/4SM R11/2600VP6000FT/D -SHRA FG VV001 09/09 A2940 RMK FG8 PRESFR SLP958
Loading
Personal Weather Stations






























Interactive Weather Map
Tropical Storm Tracking
New forecast layout! Learn more

10-Day Weather Forecast

Advertisements
Track Severe Weather on mobile